sensor_id;sensor_type;location;lat;lon;timestamp;pressure;altitude;pressure_sealevel;temperature;humidity
64933;BME280;51446;53.850;10.662;2023-04-01T00:01:38;99547.56;;;9.46;100.00
64933;BME280;51446;53.850;10.662;2023-04-01T00:04:03;99548.44;;;9.31;100.00
64933;BME280;51446;53.850;10.662;2023-04-01T00:06:29;99547.56;;;9.37;100.00
64933;BME280;51446;53.850;10.662;2023-04-01T00:08:55;99548.47;;;9.47;100.00
64933;BME280;51446;53.850;10.662;2023-04-01T00:11:20;99547.59;;;9.31;100.00
64933;BME280;51446;53.850;10.662;2023-04-01T00:13:46;99545.81;;;9.37;100.00
64933;BME280;51446;53.850;10.662;2023-04-01T00:16:12;99550.19;;;9.28;100.00
64933;BME280;51446;53.850;10.662;2023-04-01T00:18:38;99556.28;;;9.27;100.00
64933;BME280;51446;53.850;10.662;2023-04-01T00:21:04;99551.91;;;9.24;100.00
64933;BME280;51446;53.850;10.662;2023-04-01T00:23:30;99553.63;;;9.19;100.00
64933;BME280;51446;53.850;10.662;2023-04-01T00:25:55;99549.31;;;9.16;100.00
64933;BME280;51446;53.850;10.662;2023-04-01T00:28:21;99555.41;;;9.15;100.00
64933;BME280;51446;53.850;10.662;2023-04-01T00:30:46;99551.06;;;9.28;100.00
64933;BME280;51446;53.850;10.662;2023-04-01T00:33:12;99547.56;;;9.12;100.00
64933;BME280;51446;53.850;10.662;2023-04-01T00:35:39;99554.53;;;9.21;100.00
64933;BME280;51446;53.850;10.662;2023-04-01T00:38:05;99555.41;;;9.14;100.00
64933;BME280;51446;53.850;10.662;2023-04-01T00:40:37;99552.78;;;9.17;100.00
64933;BME280;51446;53.850;10.662;2023-04-01T00:43:05;99553.63;;;9.13;100.00
64933;BME280;51446;53.850;10.662;2023-04-01T00:45:38;99552.78;;;9.08;100.00
64933;BME280;51446;53.850;10.662;2023-04-01T00:48:08;99551.03;;;9.14;100.00
64933;BME280;51446;53.850;10.662;2023-04-01T00:50:35;99561.50;;;9.17;100.00
64933;BME280;51446;53.850;10.662;2023-04-01T00:53:02;99556.28;;;9.22;100.00
64933;BME280;51446;53.850;10.662;2023-04-01T00:55:30;99551.88;;;9.10;100.00
64933;BME280;51446;53.850;10.662;2023-04-01T00:57:58;99551.91;;;9.19;100.00
64933;BME280;51446;53.850;10.662;2023-04-01T01:00:25;99552.78;;;9.11;100.00
64933;BME280;51446;53.850;10.662;2023-04-01T01:02:51;99556.25;;;9.08;100.00
64933;BME280;51446;53.850;10.662;2023-04-01T01:05:19;99558.00;;;9.22;100.00
64933;BME280;51446;53.850;10.662;2023-04-01T01:07:55;99555.41;;;9.12;100.00
64933;BME280;51446;53.850;10.662;2023-04-01T01:10:35;99553.63;;;9.07;100.00
64933;BME280;51446;53.850;10.662;2023-04-01T01:13:29;99558.00;;;9.06;100.00
64933;BME280;51446;53.850;10.662;2023-04-01T01:16:06;99544.03;;;9.02;100.00
64933;BME280;51446;53.850;10.662;2023-04-01T01:21:54;99562.34;;;9.09;100.00
64933;BME280;51446;53.850;10.662;2023-04-01T01:24:43;99562.34;;;8.99;100.00
64933;BME280;51446;53.850;10.662;2023-04-01T01:27:12;99560.63;;;9.09;100.00
64933;BME280;51446;53.850;10.662;2023-04-01T01:32:35;99565.00;;;9.13;100.00
64933;BME280;51446;53.850;10.662;2023-04-01T01:35:20;99563.25;;;9.09;100.00
64933;BME280;51446;53.850;10.662;2023-04-01T01:37:50;99564.09;;;9.05;100.00
64933;BME280;51446;53.850;10.662;2023-04-01T01:40:17;99565.81;;;8.97;100.00
64933;BME280;51446;53.850;10.662;2023-04-01T01:42:49;99572.81;;;9.07;100.00
64933;BME280;51446;53.850;10.662;2023-04-01T01:45:18;99568.47;;;9.14;100.00
64933;BME280;51446;53.850;10.662;2023-04-01T01:47:45;99562.34;;;9.02;100.00
64933;BME280;51446;53.850;10.662;2023-04-01T01:50:12;99565.84;;;9.08;100.00
64933;BME280;51446;53.850;10.662;2023-04-01T01:52:38;99560.63;;;9.06;100.00
64933;BME280;51446;53.850;10.662;2023-04-01T01:57:48;99569.31;;;8.99;100.00
64933;BME280;51446;53.850;10.662;2023-04-01T02:00:15;99566.66;;;8.97;100.00
64933;BME280;51446;53.850;10.662;2023-04-01T02:02:44;99573.66;;;9.03;100.00
64933;BME280;51446;53.850;10.662;2023-04-01T02:05:17;99570.19;;;9.01;100.00
64933;BME280;51446;53.850;10.662;2023-04-01T02:07:47;99569.31;;;9.08;100.00
64933;BME280;51446;53.850;10.662;2023-04-01T02:10:14;99575.41;;;9.09;100.00
64933;BME280;51446;53.850;10.662;2023-04-01T02:12:41;99572.78;;;9.01;100.00
64933;BME280;51446;53.850;10.662;2023-04-01T02:15:11;99571.09;;;9.11;100.00
64933;BME280;51446;53.850;10.662;2023-04-01T02:17:42;99577.16;;;9.08;100.00
64933;BME280;51446;53.850;10.662;2023-04-01T02:20:13;99582.41;;;9.10;100.00
64933;BME280;51446;53.850;10.662;2023-04-01T02:22:43;99586.72;;;8.91;100.00
64933;BME280;51446;53.850;10.662;2023-04-01T02:25:13;99584.00;;;8.64;100.00
64933;BME280;51446;53.850;10.662;2023-04-01T02:27:40;99593.56;;;8.62;100.00
64933;BME280;51446;53.850;10.662;2023-04-01T02:30:08;99595.31;;;8.60;100.00
64933;BME280;51446;53.850;10.662;2023-04-01T02:32:35;99594.31;;;8.41;100.00
64933;BME280;51446;53.850;10.662;2023-04-01T02:35:05;99598.59;;;8.30;100.00
64933;BME280;51446;53.850;10.662;2023-04-01T02:37:31;99604.72;;;8.37;100.00
64933;BME280;51446;53.850;10.662;2023-04-01T02:40:01;99607.31;;;8.37;100.00
64933;BME280;51446;53.850;10.662;2023-04-01T02:42:27;99612.66;;;8.44;100.00
64933;BME280;51446;53.850;10.662;2023-04-01T02:44:52;99605.53;;;8.26;100.00
64933;BME280;51446;53.850;10.662;2023-04-01T02:47:17;99607.25;;;8.20;100.00
64933;BME280;51446;53.850;10.662;2023-04-01T02:49:42;99616.81;;;8.21;100.00
64933;BME280;51446;53.850;10.662;2023-04-01T02:52:08;99611.53;;;8.13;100.00
64933;BME280;51446;53.850;10.662;2023-04-01T02:54:33;99621.94;;;8.07;100.00
64933;BME280;51446;53.850;10.662;2023-04-01T02:56:58;99622.78;;;8.01;100.00
64933;BME280;51446;53.850;10.662;2023-04-01T02:59:24;99634.06;;;7.97;100.00
64933;BME280;51446;53.850;10.662;2023-04-01T03:01:49;99633.09;;;7.89;100.00
64933;BME280;51446;53.850;10.662;2023-04-01T03:04:14;99630.34;;;7.72;100.00
64933;BME280;51446;53.850;10.662;2023-04-01T03:06:39;99631.94;;;7.56;100.00
64933;BME280;51446;53.850;10.662;2023-04-01T03:09:05;99638.09;;;7.61;100.00
64933;BME280;51446;53.850;10.662;2023-04-01T03:11:30;99647.59;;;7.56;100.00
64933;BME280;51446;53.850;10.662;2023-04-01T03:13:55;99643.06;;;7.36;100.00
64933;BME280;51446;53.850;10.662;2023-04-01T03:16:21;99647.38;;;7.33;100.00
64933;BME280;51446;53.850;10.662;2023-04-01T03:18:46;99655.09;;;7.23;100.00
64933;BME280;51446;53.850;10.662;2023-04-01T03:21:21;99656.00;;;7.28;100.00
64933;BME280;51446;53.850;10.662;2023-04-01T03:23:47;99655.31;;;7.42;100.00
64933;BME280;51446;53.850;10.662;2023-04-01T03:26:13;99655.19;;;7.33;100.00
64933;BME280;51446;53.850;10.662;2023-04-01T03:28:38;99665.59;;;7.31;100.00
64933;BME280;51446;53.850;10.662;2023-04-01T03:31:04;99658.53;;;7.21;100.00
64933;BME280;51446;53.850;10.662;2023-04-01T03:33:30;99666.31;;;7.15;100.00
64933;BME280;51446;53.850;10.662;2023-04-01T03:35:55;99673.22;;;7.14;100.00
64933;BME280;51446;53.850;10.662;2023-04-01T03:38:21;99668.88;;;7.13;100.00
64933;BME280;51446;53.850;10.662;2023-04-01T03:40:46;99680.78;;;6.94;100.00
64933;BME280;51446;53.850;10.662;2023-04-01T03:43:11;99679.13;;;6.99;100.00
64933;BME280;51446;53.850;10.662;2023-04-01T03:45:44;99680.81;;;6.95;100.00
64933;BME280;51446;53.850;10.662;2023-04-01T03:48:09;99682.56;;;6.95;100.00
64933;BME280;51446;53.850;10.662;2023-04-01T03:50:35;99682.28;;;6.75;100.00
64933;BME280;51446;53.850;10.662;2023-04-01T03:53:00;99685.59;;;6.62;100.00
64933;BME280;51446;53.850;10.662;2023-04-01T03:55:25;99692.44;;;6.55;100.00
64933;BME280;51446;53.850;10.662;2023-04-01T03:57:51;99691.44;;;6.48;100.00
64933;BME280;51446;53.850;10.662;2023-04-01T04:00:16;99705.16;;;6.35;100.00
64933;BME280;51446;53.850;10.662;2023-04-01T04:02:41;99710.56;;;6.47;100.00
64933;BME280;51446;53.850;10.662;2023-04-01T04:05:07;99714.81;;;6.42;100.00
64933;BME280;51446;53.850;10.662;2023-04-01T04:07:34;99712.06;;;6.31;100.00
64933;BME280;51446;53.850;10.662;2023-04-01T04:09:59;99709.44;;;6.31;100.00
64933;BME280;51446;53.850;10.662;2023-04-01T04:12:25;99715.34;;;6.21;100.00
64933;BME280;51446;53.850;10.662;2023-04-01T04:14:50;99719.47;;;6.06;100.00
64933;BME280;51446;53.850;10.662;2023-04-01T04:17:15;99724.72;;;6.10;100.00
64933;BME280;51446;53.850;10.662;2023-04-01T04:19:41;99719.50;;;6.10;100.00
64933;BME280;51446;53.850;10.662;2023-04-01T04:22:07;99721.81;;;5.96;100.00
64933;BME280;51446;53.850;10.662;2023-04-01T04:24:34;99732.16;;;5.91;100.00
64933;BME280;51446;53.850;10.662;2023-04-01T04:26:59;99743.34;;;5.85;100.00
64933;BME280;51446;53.850;10.662;2023-04-01T04:29:24;99743.34;;;5.85;100.00
64933;BME280;51446;53.850;10.662;2023-04-01T04:31:50;99743.38;;;5.88;100.00
64933;BME280;51446;53.850;10.662;2023-04-01T04:34:15;99747.75;;;5.89;100.00
64933;BME280;51446;53.850;10.662;2023-04-01T04:36:40;99749.59;;;5.95;100.00
64933;BME280;51446;53.850;10.662;2023-04-01T04:39:05;99747.00;;;5.97;100.00
64933;BME280;51446;53.850;10.662;2023-04-01T04:41:31;99758.25;;;5.96;100.00
64933;BME280;51446;53.850;10.662;2023-04-01T04:43:56;99760.97;;;6.00;100.00
64933;BME280;51446;53.850;10.662;2023-04-01T04:46:22;99752.06;;;5.89;100.00
64933;BME280;51446;53.850;10.662;2023-04-01T04:48:48;99758.94;;;5.85;100.00
64933;BME280;51446;53.850;10.662;2023-04-01T04:51:17;99766.63;;;5.78;100.00
64933;BME280;51446;53.850;10.662;2023-04-01T04:53:43;99771.66;;;5.70;100.00
64933;BME280;51446;53.850;10.662;2023-04-01T04:56:08;99767.34;;;5.70;100.00
64933;BME280;51446;53.850;10.662;2023-04-01T04:58:34;99782.13;;;5.73;100.00
64933;BME280;51446;53.850;10.662;2023-04-01T05:01:05;99782.81;;;5.64;100.00
64933;BME280;51446;53.850;10.662;2023-04-01T05:03:30;99776.09;;;5.76;100.00
64933;BME280;51446;53.850;10.662;2023-04-01T05:05:56;99786.09;;;5.55;100.00
64933;BME280;51446;53.850;10.662;2023-04-01T05:08:21;99794.03;;;5.62;100.00
64933;BME280;51446;53.850;10.662;2023-04-01T05:10:46;99795.66;;;5.55;100.00
64933;BME280;51446;53.850;10.662;2023-04-01T05:13:12;99796.41;;;5.49;100.00
64933;BME280;51446;53.850;10.662;2023-04-01T05:15:37;99797.19;;;5.47;100.00
64933;BME280;51446;53.850;10.662;2023-04-01T05:18:03;99792.78;;;5.43;100.00
64933;BME280;51446;53.850;10.662;2023-04-01T05:20:28;99803.84;;;5.32;100.00
64933;BME280;51446;53.850;10.662;2023-04-01T05:22:57;99806.41;;;5.31;100.00
64933;BME280;51446;53.850;10.662;2023-04-01T05:25:22;99803.75;;;5.28;100.00
64933;BME280;51446;53.850;10.662;2023-04-01T05:27:48;99815.09;;;5.33;100.00
64933;BME280;51446;53.850;10.662;2023-04-01T05:30:13;99807.38;;;5.34;100.00
64933;BME280;51446;53.850;10.662;2023-04-01T05:32:38;99812.34;;;5.25;100.00
64933;BME280;51446;53.850;10.662;2023-04-01T05:35:04;99823.84;;;5.35;100.00
64933;BME280;51446;53.850;10.662;2023-04-01T05:37:29;99827.28;;;5.35;100.00
64933;BME280;51446;53.850;10.662;2023-04-01T05:39:55;99829.84;;;5.32;100.00
64933;BME280;51446;53.850;10.662;2023-04-01T05:42:20;99833.28;;;5.33;100.00
64933;BME280;51446;53.850;10.662;2023-04-01T05:44:45;99832.16;;;5.20;100.00
64933;BME280;51446;53.850;10.662;2023-04-01T05:47:10;99839.06;;;5.19;100.00
64933;BME280;51446;53.850;10.662;2023-04-01T05:49:36;99841.03;;;5.30;100.00
64933;BME280;51446;53.850;10.662;2023-04-01T05:52:01;99845.28;;;5.25;100.00
64933;BME280;51446;53.850;10.662;2023-04-01T05:54:26;99852.88;;;5.17;100.00
64933;BME280;51446;53.850;10.662;2023-04-01T05:56:51;99858.84;;;5.13;100.00
64933;BME280;51446;53.850;10.662;2023-04-01T05:59:17;99853.59;;;5.10;100.00
64933;BME280;51446;53.850;10.662;2023-04-01T06:01:42;99861.50;;;5.14;100.00
64933;BME280;51446;53.850;10.662;2023-04-01T06:04:13;99864.22;;;5.19;100.00
64933;BME280;51446;53.850;10.662;2023-04-01T06:06:39;99867.56;;;5.15;100.00
64933;BME280;51446;53.850;10.662;2023-04-01T06:09:12;99865.44;;;4.98;100.00
64933;BME280;51446;53.850;10.662;2023-04-01T06:12:02;99871.91;;;5.14;100.00
64933;BME280;51446;53.850;10.662;2023-04-01T06:14:56;99873.38;;;5.03;100.00
64933;BME280;51446;53.850;10.662;2023-04-01T06:20:31;99887.25;;;5.05;100.00
64933;BME280;51446;53.850;10.662;2023-04-01T06:23:24;99888.81;;;4.98;100.00
64933;BME280;51446;53.850;10.662;2023-04-01T06:26:04;99888.06;;;5.02;100.00
64933;BME280;51446;53.850;10.662;2023-04-01T06:29:00;99901.78;;;4.97;100.00
64933;BME280;51446;53.850;10.662;2023-04-01T06:42:56;99921.69;;;4.96;100.00
64933;BME280;51446;53.850;10.662;2023-04-01T06:49:16;99932.03;;;4.93;100.00
64933;BME280;51446;53.850;10.662;2023-04-01T06:54:36;99935.31;;;4.86;100.00
64933;BME280;51446;53.850;10.662;2023-04-01T07:00:26;99940.47;;;4.84;100.00
64933;BME280;51446;53.850;10.662;2023-04-01T07:05:43;99947.69;;;4.96;100.00
64933;BME280;51446;53.850;10.662;2023-04-01T07:08:17;99953.88;;;5.01;100.00
64933;BME280;51446;53.850;10.662;2023-04-01T07:10:52;99961.13;;;4.80;100.00
64933;BME280;51446;53.850;10.662;2023-04-01T07:13:26;99962.88;;;4.81;100.00
64933;BME280;51446;53.850;10.662;2023-04-01T07:16:07;99973.44;;;4.87;100.00
64933;BME280;51446;53.850;10.662;2023-04-01T07:18:47;99966.50;;;4.88;100.00
64933;BME280;51446;53.850;10.662;2023-04-01T07:21:41;99982.81;;;4.82;100.00
64933;BME280;51446;53.850;10.662;2023-04-01T07:24:14;99976.72;;;4.80;100.00
64933;BME280;51446;53.850;10.662;2023-04-01T07:26:41;99979.22;;;4.77;100.00
64933;BME280;51446;53.850;10.662;2023-04-01T07:29:12;99987.84;;;4.76;100.00
64933;BME280;51446;53.850;10.662;2023-04-01T07:32:00;99986.06;;;4.73;100.00
64933;BME280;51446;53.850;10.662;2023-04-01T07:37:30;100000.06;;;4.78;100.00
64933;BME280;51446;53.850;10.662;2023-04-01T07:43:01;100002.78;;;4.83;100.00
64933;BME280;51446;53.850;10.662;2023-04-01T07:45:54;100015.03;;;4.89;100.00
64933;BME280;51446;53.850;10.662;2023-04-01T07:48:26;100021.75;;;4.80;100.00
64933;BME280;51446;53.850;10.662;2023-04-01T07:57:19;100032.41;;;4.91;100.00
64933;BME280;51446;53.850;10.662;2023-04-01T08:21:24;100048.91;;;4.92;100.00
64933;BME280;51446;53.850;10.662;2023-04-01T08:23:52;100080.84;;;4.89;100.00
64933;BME280;51446;53.850;10.662;2023-04-01T08:26:34;100071.50;;;4.94;100.00
64933;BME280;51446;53.850;10.662;2023-04-01T08:29:09;100072.31;;;4.93;100.00
64933;BME280;51446;53.850;10.662;2023-04-01T08:31:40;100073.25;;;4.97;100.00
64933;BME280;51446;53.850;10.662;2023-04-01T08:34:17;100073.97;;;4.91;100.00
64933;BME280;51446;53.850;10.662;2023-04-01T08:36:53;100084.28;;;4.88;100.00
64933;BME280;51446;53.850;10.662;2023-04-01T08:39:30;100084.47;;;4.94;100.00
64933;BME280;51446;53.850;10.662;2023-04-01T08:45:10;100089.44;;;4.86;100.00
64933;BME280;51446;53.850;10.662;2023-04-01T08:56:06;100107.72;;;4.90;100.00
64933;BME280;51446;53.850;10.662;2023-04-01T09:09:57;100132.56;;;4.80;100.00
64933;BME280;51446;53.850;10.662;2023-04-01T09:12:49;100127.72;;;4.92;100.00
64933;BME280;51446;53.850;10.662;2023-04-01T09:15:27;100122.25;;;4.83;100.00
64933;BME280;51446;53.850;10.662;2023-04-01T09:27:32;100134.66;;;4.93;100.00
64933;BME280;51446;53.850;10.662;2023-04-01T09:29:52;100144.56;;;5.07;100.00
64933;BME280;51446;53.850;10.662;2023-04-01T09:35:21;100145.13;;;5.27;100.00
64933;BME280;51446;53.850;10.662;2023-04-01T09:37:51;100164.81;;;5.18;100.00
64933;BME280;51446;53.850;10.662;2023-04-01T09:40:46;100156.94;;;5.15;100.00
64933;BME280;51446;53.850;10.662;2023-04-01T09:43:21;100163.19;;;5.22;100.00
64933;BME280;51446;53.850;10.662;2023-04-01T09:49:20;100174.47;;;5.22;100.00
64933;BME280;51446;53.850;10.662;2023-04-01T09:52:08;100180.38;;;5.17;100.00
64933;BME280;51446;53.850;10.662;2023-04-01T09:55:00;100171.94;;;5.26;100.00
64933;BME280;51446;53.850;10.662;2023-04-01T10:05:57;100191.44;;;5.10;100.00
64933;BME280;51446;53.850;10.662;2023-04-01T10:08:56;100205.91;;;5.00;100.00
64933;BME280;51446;53.850;10.662;2023-04-01T10:20:20;100206.41;;;5.18;100.00
64933;BME280;51446;53.850;10.662;2023-04-01T10:23:19;100209.13;;;5.21;100.00
64933;BME280;51446;53.850;10.662;2023-04-01T10:28:49;100217.13;;;5.29;100.00
64933;BME280;51446;53.850;10.662;2023-04-01T10:36:58;100230.59;;;4.85;100.00
64933;BME280;51446;53.850;10.662;2023-04-01T10:50:30;100238.63;;;4.66;100.00
64933;BME280;51446;53.850;10.662;2023-04-01T10:59:23;100272.03;;;4.55;100.00
64933;BME280;51446;53.850;10.662;2023-04-01T11:10:38;100292.34;;;4.67;100.00
64933;BME280;51446;53.850;10.662;2023-04-01T11:16:52;100286.06;;;4.60;100.00
64933;BME280;51446;53.850;10.662;2023-04-01T11:25:17;100299.06;;;4.60;100.00
64933;BME280;51446;53.850;10.662;2023-04-01T11:31:09;100305.13;;;4.61;100.00
64933;BME280;51446;53.850;10.662;2023-04-01T11:33:48;100311.91;;;4.56;100.00
64933;BME280;51446;53.850;10.662;2023-04-01T11:37:09;100320.56;;;4.56;100.00
64933;BME280;51446;53.850;10.662;2023-04-01T11:39:20;100323.16;;;4.56;100.00
64933;BME280;51446;53.850;10.662;2023-04-01T11:42:10;100318.00;;;4.58;100.00
64933;BME280;51446;53.850;10.662;2023-04-01T11:44:50;100315.78;;;4.68;100.00
64933;BME280;51446;53.850;10.662;2023-04-01T11:55:59;100341.72;;;4.41;100.00
64933;BME280;51446;53.850;10.662;2023-04-01T12:07:19;100364.72;;;4.56;100.00
64933;BME280;51446;53.850;10.662;2023-04-01T12:15:22;100379.66;;;4.63;100.00
64933;BME280;51446;53.850;10.662;2023-04-01T12:18:00;100372.44;;;4.55;100.00
64933;BME280;51446;53.850;10.662;2023-04-01T12:20:36;100390.56;;;4.53;100.00
64933;BME280;51446;53.850;10.662;2023-04-01T12:25:49;100391.72;;;4.61;100.00
64933;BME280;51446;53.850;10.662;2023-04-01T12:31:01;100406.06;;;4.50;100.00
64933;BME280;51446;53.850;10.662;2023-04-01T12:36:08;100409.47;;;4.49;100.00
64933;BME280;51446;53.850;10.662;2023-04-01T12:41:56;100406.97;;;4.52;100.00
64933;BME280;51446;53.850;10.662;2023-04-01T12:47:41;100417.47;;;4.55;100.00
64933;BME280;51446;53.850;10.662;2023-04-01T12:55:41;100432.13;;;4.53;100.00
64933;BME280;51446;53.850;10.662;2023-04-01T12:58:27;100428.19;;;4.64;100.00
64933;BME280;51446;53.850;10.662;2023-04-01T13:09:53;100446.47;;;4.67;100.00
64933;BME280;51446;53.850;10.662;2023-04-01T13:25:45;100460.47;;;4.47;100.00
64933;BME280;51446;53.850;10.662;2023-04-01T13:28:26;100471.03;;;4.51;100.00
64933;BME280;51446;53.850;10.662;2023-04-01T13:31:07;100496.22;;;4.30;100.00
64933;BME280;51446;53.850;10.662;2023-04-01T13:33:47;100482.28;;;4.52;100.00
64933;BME280;51446;53.850;10.662;2023-04-01T13:36:44;100487.81;;;4.61;100.00
64933;BME280;51446;53.850;10.662;2023-04-01T13:39:51;100491.06;;;4.56;100.00
64933;BME280;51446;53.850;10.662;2023-04-01T13:42:25;100494.06;;;4.42;100.00
64933;BME280;51446;53.850;10.662;2023-04-01T13:45:22;100512.50;;;4.50;100.00
64933;BME280;51446;53.850;10.662;2023-04-01T13:50:58;100513.78;;;4.61;100.00
64933;BME280;51446;53.850;10.662;2023-04-01T14:06:05;100527.28;;;4.77;100.00
64933;BME280;51446;53.850;10.662;2023-04-01T14:08:55;100540.13;;;4.72;100.00
64933;BME280;51446;53.850;10.662;2023-04-01T14:11:58;100522.91;;;4.74;100.00
64933;BME280;51446;53.850;10.662;2023-04-01T14:14:43;100534.66;;;4.89;100.00
64933;BME280;51446;53.850;10.662;2023-04-01T14:17:20;100546.78;;;4.64;100.00
64933;BME280;51446;53.850;10.662;2023-04-01T14:28:31;100562.94;;;4.32;100.00
64933;BME280;51446;53.850;10.662;2023-04-01T14:36:55;100578.63;;;4.36;100.00
64933;BME280;51446;53.850;10.662;2023-04-01T14:50:46;100595.94;;;4.35;100.00
64933;BME280;51446;53.850;10.662;2023-04-01T14:53:37;100596.38;;;4.25;100.00
64933;BME280;51446;53.850;10.662;2023-04-01T14:56:04;100602.91;;;4.38;100.00
64933;BME280;51446;53.850;10.662;2023-04-01T14:58:50;100610.38;;;4.28;100.00
64933;BME280;51446;53.850;10.662;2023-04-01T15:01:40;100617.72;;;4.17;100.00
64933;BME280;51446;53.850;10.662;2023-04-01T15:04:34;100613.84;;;4.06;100.00
64933;BME280;51446;53.850;10.662;2023-04-01T15:13:05;100635.25;;;4.01;100.00
64933;BME280;51446;53.850;10.662;2023-04-01T15:15:55;100630.28;;;4.07;100.00
64933;BME280;51446;53.850;10.662;2023-04-01T15:24:06;100650.81;;;4.01;100.00
64933;BME280;51446;53.850;10.662;2023-04-01T15:29:27;100658.38;;;3.96;100.00
64933;BME280;51446;53.850;10.662;2023-04-01T15:40:30;100678.78;;;3.87;100.00
64933;BME280;51446;53.850;10.662;2023-04-01T15:45:49;100691.81;;;3.88;100.00
64933;BME280;51446;53.850;10.662;2023-04-01T15:48:29;100682.53;;;3.93;100.00
64933;BME280;51446;53.850;10.662;2023-04-01T15:51:12;100689.22;;;3.88;100.00
64933;BME280;51446;53.850;10.662;2023-04-01T15:54:06;100696.25;;;3.91;100.00
64933;BME280;51446;53.850;10.662;2023-04-01T16:02:34;100710.97;;;3.71;100.00
64933;BME280;51446;53.850;10.662;2023-04-01T16:13:03;100717.75;;;3.88;100.00
64933;BME280;51446;53.850;10.662;2023-04-01T16:15:41;100725.84;;;3.75;100.00
64933;BME280;51446;53.850;10.662;2023-04-01T16:18:26;100737.09;;;3.75;100.00
64933;BME280;51446;53.850;10.662;2023-04-01T16:21:19;100735.38;;;3.76;100.00
64933;BME280;51446;53.850;10.662;2023-04-01T16:23:51;100739.38;;;3.89;100.00
64933;BME280;51446;53.850;10.662;2023-04-01T16:26:36;100739.59;;;3.93;100.00
64933;BME280;51446;53.850;10.662;2023-04-01T16:29:29;100754.13;;;3.90;100.00
64933;BME280;51446;53.850;10.662;2023-04-01T16:32:12;100738.56;;;3.90;100.00
64933;BME280;51446;53.850;10.662;2023-04-01T16:35:27;100756.34;;;3.80;100.00
64933;BME280;51446;53.850;10.662;2023-04-01T16:37:53;100758.78;;;3.77;100.00
64933;BME280;51446;53.850;10.662;2023-04-01T16:40:40;100762.16;;;3.75;100.00
64933;BME280;51446;53.850;10.662;2023-04-01T16:43:16;100774.22;;;3.74;100.00
64933;BME280;51446;53.850;10.662;2023-04-01T16:46:15;100787.06;;;3.71;100.00
64933;BME280;51446;53.850;10.662;2023-04-01T16:51:52;100787.28;;;3.56;100.00
64933;BME280;51446;53.850;10.662;2023-04-01T16:54:50;100801.38;;;3.63;100.00
64933;BME280;51446;53.850;10.662;2023-04-01T16:57:25;100817.97;;;3.67;100.00
64933;BME280;51446;53.850;10.662;2023-04-01T17:02:45;100818.81;;;3.46;100.00
64933;BME280;51446;53.850;10.662;2023-04-01T17:05:12;100824.78;;;3.45;100.00
64933;BME280;51446;53.850;10.662;2023-04-01T17:10:30;100836.88;;;3.44;100.00
64933;BME280;51446;53.850;10.662;2023-04-01T17:15:41;100838.50;;;3.42;100.00
64933;BME280;51446;53.850;10.662;2023-04-01T17:18:34;100852.47;;;3.26;100.00
64933;BME280;51446;53.850;10.662;2023-04-01T17:21:10;100859.25;;;3.42;100.00
64933;BME280;51446;53.850;10.662;2023-04-01T17:23:48;100872.59;;;3.32;100.00
64933;BME280;51446;53.850;10.662;2023-04-01T17:26:22;100869.13;;;3.32;100.00
64933;BME280;51446;53.850;10.662;2023-04-01T17:29:09;100871.47;;;3.27;100.00
64933;BME280;51446;53.850;10.662;2023-04-01T17:31:55;100880.75;;;3.22;100.00
64933;BME280;51446;53.850;10.662;2023-04-01T17:37:48;100899.91;;;3.25;100.00
64933;BME280;51446;53.850;10.662;2023-04-01T17:43:10;100911.66;;;3.17;100.00
64933;BME280;51446;53.850;10.662;2023-04-01T17:45:49;100904.94;;;3.22;100.00
64933;BME280;51446;53.850;10.662;2023-04-01T17:51:19;100918.56;;;3.18;100.00
64933;BME280;51446;53.850;10.662;2023-04-01T17:53:57;100918.22;;;3.10;100.00
64933;BME280;51446;53.850;10.662;2023-04-01T17:59:13;100941.03;;;3.18;100.00
64933;BME280;51446;53.850;10.662;2023-04-01T18:07:38;100966.50;;;3.08;100.00
64933;BME280;51446;53.850;10.662;2023-04-01T18:13:01;100982.69;;;3.04;100.00
64933;BME280;51446;53.850;10.662;2023-04-01T18:15:55;100984.47;;;3.05;100.00
64933;BME280;51446;53.850;10.662;2023-04-01T18:18:48;100979.72;;;2.97;100.00
64933;BME280;51446;53.850;10.662;2023-04-01T18:21:37;101001.72;;;3.05;100.00
64933;BME280;51446;53.850;10.662;2023-04-01T18:26:43;101015.25;;;2.99;100.00
64933;BME280;51446;53.850;10.662;2023-04-01T18:29:17;101014.22;;;2.95;100.00
64933;BME280;51446;53.850;10.662;2023-04-01T18:37:18;101026.25;;;2.95;100.00
64933;BME280;51446;53.850;10.662;2023-04-01T18:39:52;101035.19;;;2.84;100.00
64933;BME280;51446;53.850;10.662;2023-04-01T18:42:30;101034.16;;;2.80;100.00
64933;BME280;51446;53.850;10.662;2023-04-01T18:45:17;101050.41;;;2.77;100.00
64933;BME280;51446;53.850;10.662;2023-04-01T18:47:55;101045.41;;;2.81;100.00
64933;BME280;51446;53.850;10.662;2023-04-01T18:56:05;101069.75;;;2.68;100.00
64933;BME280;51446;53.850;10.662;2023-04-01T18:58:48;101070.25;;;2.60;100.00
64933;BME280;51446;53.850;10.662;2023-04-01T19:01:19;101078.25;;;2.49;100.00
64933;BME280;51446;53.850;10.662;2023-04-01T19:04:01;101088.13;;;2.56;100.00
64933;BME280;51446;53.850;10.662;2023-04-01T19:06:35;101086.34;;;2.55;100.00
64933;BME280;51446;53.850;10.662;2023-04-01T19:09:24;101097.19;;;2.48;100.00
64933;BME280;51446;53.850;10.662;2023-04-01T19:12:02;101100.03;;;2.52;100.00
64933;BME280;51446;53.850;10.662;2023-04-01T19:14:59;101097.53;;;2.54;100.00
64933;BME280;51446;53.850;10.662;2023-04-01T19:17:54;101103.75;;;2.57;100.00
64933;BME280;51446;53.850;10.662;2023-04-01T19:20:42;101126.59;;;2.33;100.00
64933;BME280;51446;53.850;10.662;2023-04-01T19:23:40;101116.31;;;2.35;100.00